Time;durP1;ratioP1;P1;durP2;ratioP2;P2;SDS_P1;SDS_P2;PMS_P1;PMS_P2;Temp;Humidity;BMP_temperature;BMP_pressure;BME280_temperature;BME280_humidity;BME280_pressure;Samples;Min_cycle;Max_cycle;Signal;HPM_P1;HPM_P2
2024/04/16 02:41:59;;;;;;;4.63;2.30;;;;;;;11.18;100.00;98176.44;6686109;21;20240;-82
2024/04/16 02:45:02;;;;;;;3.30;2.10;;;;;;;11.13;100.00;98184.44;6635401;21;20232;-82
2024/04/16 02:51:58;;;;;;;2.53;1.80;;;;;;;10.96;100.00;98182.69;6657757;21;20263;-81
2024/04/16 02:55:13;;;;;;;1.50;1.40;;;;;;;10.87;100.00;98194.19;6654034;21;20220;-83
2024/04/16 02:58:42;;;;;;;3.40;1.03;;;;;;;10.60;100.00;98192.31;6655649;21;20220;-82
2024/04/16 03:02:23;;;;;;;2.03;1.00;;;;;;;10.46;100.00;98188.44;6653747;21;20643;-81
2024/04/16 03:06:03;;;;;;;1.13;0.73;;;;;;;10.29;100.00;98197.66;6603369;21;20242;-83
2024/04/16 03:08:59;;;;;;;3.23;0.87;;;;;;;10.27;100.00;98197.88;6414075;21;20311;-83
2024/04/16 03:12:42;;;;;;;12.63;2.50;;;;;;;10.12;100.00;98195.81;6581451;21;20246;-83
2024/04/16 03:15:22;;;;;;;1.40;0.80;;;;;;;9.96;100.00;98194.03;6567338;21;20219;-82
2024/04/16 03:18:41;;;;;;;4.13;0.80;;;;;;;9.76;100.00;98191.13;6590305;21;20215;-82
2024/04/16 03:21:46;;;;;;;1.00;0.73;;;;;;;9.61;100.00;98173.00;6646802;21;20224;-83
2024/04/16 03:24:57;;;;;;;3.30;0.60;;;;;;;9.58;100.00;98196.78;6616713;21;20258;-80
2024/04/16 03:31:25;;;;;;;1.80;0.63;;;;;;;9.39;100.00;98204.28;6579416;21;20204;-83
2024/04/16 03:39:32;;;;;;;1.27;0.60;;;;;;;9.29;100.00;98220.97;6661908;21;20223;-81
2024/04/16 03:43:31;;;;;;;1.13;0.30;;;;;;;9.27;100.00;98232.97;6653050;21;20232;-82
2024/04/16 03:46:53;;;;;;;1.47;0.40;;;;;;;9.13;100.00;98247.72;6629220;21;20208;-82
2024/04/16 03:50:07;;;;;;;0.57;0.37;;;;;;;9.04;100.00;98263.34;6655248;21;20323;-82
2024/04/16 04:11:33;;;;;;;1.30;0.60;;;;;;;8.24;100.00;98300.03;6159452;23;20205;-82
2024/04/16 04:24:05;;;;;;;1.80;0.30;;;;;;;7.79;100.00;98321.22;6130392;23;20209;-83
2024/04/16 04:27:03;;;;;;;1.30;0.30;;;;;;;7.64;100.00;98339.53;6149728;23;20269;-81
2024/04/16 04:32:30;;;;;;;0.77;0.30;;;;;;;7.46;100.00;98349.28;6649076;21;20258;-85
2024/04/16 04:35:02;;;;;;;0.53;0.23;;;;;;;7.46;100.00;98332.47;6605027;21;20260;-86
2024/04/16 04:37:31;;;;;;;0.57;0.27;;;;;;;7.28;100.00;98325.38;6561478;21;20248;-85
2024/04/16 04:39:59;;;;;;;1.30;0.40;;;;;;;7.20;100.00;98322.22;6604415;21;20261;-86
2024/04/16 04:42:26;;;;;;;0.90;0.40;;;;;;;7.15;100.00;98316.78;6561039;21;20313;-84
2024/04/16 04:44:54;;;;;;;1.90;0.30;;;;;;;7.02;100.00;98310.63;6602663;21;20227;-86
2024/04/16 04:47:23;;;;;;;0.43;0.30;;;;;;;7.01;100.00;98295.69;6603913;21;20285;-86
2024/04/16 04:49:51;;;;;;;0.27;0.23;;;;;;;6.92;100.00;98313.03;6647906;21;20239;-85
2024/04/16 04:52:20;;;;;;;0.80;0.30;;;;;;;6.84;100.00;98313.38;6603620;21;20223;-88
2024/04/16 04:54:49;;;;;;;1.63;0.33;;;;;;;6.75;100.00;98314.72;6561525;21;20227;-87
2024/04/16 04:57:19;;;;;;;1.10;0.40;;;;;;;6.71;100.00;98304.75;6562322;21;20223;-85
2024/04/16 04:59:47;;;;;;;3.23;0.40;;;;;;;6.76;100.00;98318.22;6604992;21;20227;-87
2024/04/16 05:02:16;;;;;;;0.37;0.20;;;;;;;6.67;100.00;98324.88;6561304;21;20226;-86
2024/04/16 05:04:44;;;;;;;0.80;0.40;;;;;;;6.71;100.00;98310.91;6605411;21;20284;-87
2024/04/16 05:07:13;;;;;;;0.20;0.20;;;;;;;6.68;100.00;98324.63;6604002;21;20265;-87
2024/04/16 05:09:43;;;;;;;0.53;0.30;;;;;;;6.69;100.00;98320.13;6560221;21;20797;-84
2024/04/16 05:12:12;;;;;;;0.60;0.40;;;;;;;6.66;100.00;98309.94;6561607;21;20222;-85
2024/04/16 05:14:43;;;;;;;5.97;0.50;;;;;;;6.79;100.00;98299.09;6604060;21;20463;-87
2024/04/16 05:17:12;;;;;;;1.00;0.30;;;;;;;6.78;100.00;98305.47;6605280;21;20227;-84
2024/04/16 05:19:40;;;;;;;1.57;0.30;;;;;;;6.70;100.00;98308.47;6509417;21;20262;-87
2024/04/16 05:22:08;;;;;;;0.70;0.30;;;;;;;6.64;100.00;98323.47;6507502;21;20236;-86
2024/04/16 05:24:36;;;;;;;0.53;0.20;;;;;;;6.71;100.00;98332.19;6510173;21;20232;-86
2024/04/16 05:27:06;;;;;;;1.07;0.40;;;;;;;6.63;100.00;98333.31;6512695;21;20274;-86
2024/04/16 05:29:38;;;;;;;0.60;0.30;;;;;;;6.69;100.00;98352.88;6555779;21;20236;-85
2024/04/16 05:32:09;;;;;;;0.60;0.40;;;;;;;6.70;100.00;98345.72;6510478;21;20240;-85
2024/04/16 05:34:48;;;;;;;1.20;0.33;;;;;;;6.62;100.00;98352.19;6550354;21;20244;-84
2024/04/16 05:37:19;;;;;;;0.40;0.23;;;;;;;6.62;100.00;98362.81;6597204;21;20255;-83
2024/04/16 05:39:47;;;;;;;3.07;0.30;;;;;;;6.61;100.00;98385.97;6551305;21;20240;-86
2024/04/16 05:42:15;;;;;;;0.53;0.33;;;;;;;6.55;100.00;98391.34;6553291;21;20766;-85
2024/04/16 05:44:44;;;;;;;0.50;0.30;;;;;;;6.54;100.00;98392.38;6553478;21;20220;-87
2024/04/16 05:47:14;;;;;;;1.60;0.40;;;;;;;6.62;100.00;98398.22;6513063;21;20264;-86
2024/04/16 05:49:43;;;;;;;2.53;0.43;;;;;;;6.55;100.00;98424.09;6511705;21;20224;-88
2024/04/16 05:52:12;;;;;;;0.47;0.40;;;;;;;6.55;100.00;98420.63;6554826;21;20931;-88
2024/04/16 05:54:41;;;;;;;0.77;0.40;;;;;;;6.62;100.00;98397.41;6553615;21;20255;-85
2024/04/16 05:57:08;;;;;;;1.33;0.40;;;;;;;6.63;100.00;98377.72;6554675;21;20227;-87
2024/04/16 05:59:42;;;;;;;0.47;0.40;;;;;;;6.63;100.00;98396.38;6553832;21;20274;-87
2024/04/16 06:02:10;;;;;;;0.77;0.40;;;;;;;6.61;100.00;98423.22;6553464;21;20219;-85
2024/04/16 06:04:38;;;;;;;1.50;0.40;;;;;;;6.46;100.00;98432.59;6596841;21;20242;-85
2024/04/16 06:07:08;;;;;;;0.43;0.37;;;;;;;6.42;100.00;98429.59;6554550;21;20221;-85
2024/04/16 06:09:37;;;;;;;0.87;0.37;;;;;;;6.27;100.00;98415.81;6597414;21;20228;-87
2024/04/16 06:12:05;;;;;;;1.03;0.37;;;;;;;6.35;100.00;98417.38;6511710;21;20238;-85
2024/04/16 06:14:34;;;;;;;1.03;0.50;;;;;;;6.28;100.00;98409.47;6598590;21;20267;-87
2024/04/16 06:17:05;;;;;;;1.13;0.43;;;;;;;6.25;100.00;98409.13;6513655;21;20220;-85
2024/04/16 06:19:36;;;;;;;0.70;0.30;;;;;;;6.37;100.00;98410.00;6554406;21;20237;-87
2024/04/16 06:22:06;;;;;;;0.90;0.50;;;;;;;6.45;100.00;98399.88;6600295;21;20269;-86
2024/04/16 06:24:39;;;;;;;1.03;0.30;;;;;;;6.19;100.00;98410.81;6556010;21;21218;-83
2024/04/16 06:27:10;;;;;;;1.87;0.30;;;;;;;6.14;100.00;98390.19;6512001;21;20222;-85
2024/04/16 06:29:38;;;;;;;1.43;0.37;;;;;;;6.14;100.00;98414.13;6554259;21;20275;-85
2024/04/16 06:32:11;;;;;;;0.70;0.40;;;;;;;6.25;100.00;98417.09;6513050;21;20247;-85
2024/04/16 06:34:39;;;;;;;1.40;0.30;;;;;;;6.22;100.00;98417.50;6554643;21;20228;-84
2024/04/16 06:37:11;;;;;;;0.73;0.30;;;;;;;6.25;100.00;98406.47;6512683;21;20271;-86
2024/04/16 06:39:45;;;;;;;0.90;0.30;;;;;;;6.31;100.00;98418.84;6555023;21;20310;-85
2024/04/16 06:42:14;;;;;;;0.70;0.30;;;;;;;6.30;100.00;98434.00;6554219;21;20255;-87
2024/04/16 06:44:47;;;;;;;1.07;0.50;;;;;;;6.38;100.00;98424.94;6555017;21;20291;-85
2024/04/16 06:47:15;;;;;;;0.50;0.50;;;;;;;6.37;100.00;98433.94;6511924;21;20474;-86
2024/04/16 06:49:45;;;;;;;1.30;0.43;;;;;;;6.45;100.00;98445.09;6553980;21;20254;-89
2024/04/16 06:52:21;;;;;;;0.33;0.30;;;;;;;6.52;100.00;98432.53;6557176;21;20229;-87
2024/04/16 06:54:51;;;;;;;0.73;0.50;;;;;;;6.50;100.00;98436.44;6511668;21;20232;-87
2024/04/16 06:57:25;;;;;;;0.50;0.30;;;;;;;6.55;100.00;98441.91;6555253;21;20672;-85
2024/04/16 06:59:55;;;;;;;2.40;0.40;;;;;;;6.41;100.00;98446.56;6554040;21;20655;-88
2024/04/16 07:02:29;;;;;;;0.30;0.30;;;;;;;6.40;100.00;98433.47;6512467;21;20276;-87
2024/04/16 07:04:57;;;;;;;1.20;0.40;;;;;;;6.33;100.00;98448.72;6596242;21;20232;-85
2024/04/16 07:07:28;;;;;;;0.50;0.50;;;;;;;6.36;100.00;98435.78;6513296;21;20274;-85
2024/04/16 07:09:57;;;;;;;0.33;0.33;;;;;;;6.23;100.00;98446.56;6510818;21;20276;-83
2024/04/16 07:12:28;;;;;;;3.60;0.47;;;;;;;6.19;100.00;98438.22;6553996;21;20232;-85
2024/04/16 07:14:57;;;;;;;0.90;0.50;;;;;;;6.14;100.00;98464.66;6553706;21;20319;-86
2024/04/16 07:17:26;;;;;;;0.60;0.43;;;;;;;6.11;100.00;98440.34;6554124;21;20243;-86
2024/04/16 07:19:54;;;;;;;1.13;0.50;;;;;;;6.22;100.00;98468.06;6554973;21;20224;-89
2024/04/16 07:22:27;;;;;;;1.53;0.50;;;;;;;6.07;100.00;98476.38;6555776;21;20337;-87
2024/04/16 07:24:55;;;;;;;0.90;0.40;;;;;;;5.84;100.00;98484.09;6553772;21;20751;-87
2024/04/16 07:27:24;;;;;;;0.67;0.40;;;;;;;5.73;100.00;98475.81;6596803;21;20232;-87
2024/04/16 07:29:54;;;;;;;0.77;0.30;;;;;;;5.46;100.00;98482.34;6554895;21;20224;-86
2024/04/16 07:32:24;;;;;;;0.80;0.40;;;;;;;5.49;100.00;98479.28;6552259;21;20236;-85
2024/04/16 07:34:53;;;;;;;0.80;0.50;;;;;;;5.46;100.00;98485.00;6552920;21;20227;-85
2024/04/16 07:37:25;;;;;;;0.60;0.47;;;;;;;5.53;100.00;98491.09;6553286;21;20224;-85
2024/04/16 07:39:53;;;;;;;1.00;0.53;;;;;;;5.40;100.00;98485.06;6552563;21;20310;-84
2024/04/16 07:42:21;;;;;;;0.80;0.53;;;;;;;5.50;100.00;98478.25;6552305;21;20584;-87
2024/04/16 07:44:52;;;;;;;1.13;0.40;;;;;;;5.52;100.00;98491.28;6596082;21;20227;-85
2024/04/16 07:47:21;;;;;;;1.47;0.40;;;;;;;5.41;100.00;98492.81;6552499;21;21300;-87
2024/04/16 07:49:50;;;;;;;1.20;0.70;;;;;;;5.51;100.00;98495.78;6640398;21;20223;-86
2024/04/16 07:52:20;;;;;;;0.40;0.40;;;;;;;5.50;100.00;98488.06;6553148;21;20228;-86
2024/04/16 07:54:48;;;;;;;0.70;0.40;;;;;;;5.49;100.00;98489.91;6551119;21;20247;-84
2024/04/16 07:57:16;;;;;;;1.60;0.67;;;;;;;5.62;100.00;98492.47;6553054;21;20275;-83
2024/04/16 07:59:44;;;;;;;0.63;0.40;;;;;;;5.71;100.00;98485.03;6552922;21;20314;-85
2024/04/16 08:02:12;;;;;;;0.50;0.43;;;;;;;5.78;100.00;98478.63;6551732;21;20236;-86
2024/04/16 08:04:40;;;;;;;1.53;0.50;;;;;;;5.89;100.00;98474.47;6595725;21;20228;-86
2024/04/16 08:07:09;;;;;;;1.33;0.50;;;;;;;5.89;100.00;98476.31;6552927;21;20266;-85
2024/04/16 08:09:37;;;;;;;0.70;0.50;;;;;;;6.03;100.00;98467.22;6551754;21;20232;-86
2024/04/16 08:12:06;;;;;;;2.10;0.50;;;;;;;6.02;100.00;98469.03;6552696;21;20246;-86
2024/04/16 08:14:34;;;;;;;0.57;0.50;;;;;;;6.12;100.00;98469.38;6550570;21;20220;-86
2024/04/16 08:17:03;;;;;;;0.60;0.40;;;;;;;6.15;100.00;98452.19;6509662;21;20330;-85
2024/04/16 08:19:31;;;;;;;0.70;0.57;;;;;;;6.16;100.00;98464.41;6509845;21;20235;-85
2024/04/16 08:22:02;;;;;;;2.10;0.60;;;;;;;6.24;100.00;98466.00;6510075;21;20224;-87
2024/04/16 08:24:38;;;;;;;0.87;0.40;;;;;;;6.30;100.00;98481.88;6553959;21;21166;-87
2024/04/16 08:27:06;;;;;;;1.20;0.33;;;;;;;6.42;100.00;98468.66;6509230;21;20228;-87
2024/04/16 08:29:34;;;;;;;1.43;0.40;;;;;;;6.54;100.00;98461.56;6552030;21;20224;-87
2024/04/16 08:32:05;;;;;;;0.37;0.30;;;;;;;6.68;100.00;98470.22;6594676;21;20318;-85
2024/04/16 08:34:39;;;;;;;1.40;0.70;;;;;;;6.69;100.00;98487.81;6594172;21;20220;-87
2024/04/16 08:37:07;;;;;;;1.10;0.50;;;;;;;6.67;100.00;98509.34;6509290;21;20232;-85
2024/04/16 08:39:37;;;;;;;0.97;0.50;;;;;;;6.77;100.00;98520.28;6593197;21;20220;-86
2024/04/16 08:42:07;;;;;;;0.60;0.40;;;;;;;6.75;100.00;98516.22;6594556;21;20295;-85
2024/04/16 08:44:35;;;;;;;0.93;0.47;;;;;;;6.89;100.00;98517.69;6507588;21;20283;-85
2024/04/16 08:47:04;;;;;;;0.50;0.40;;;;;;;6.89;100.00;98515.84;6552037;21;20241;-87
2024/04/16 08:49:32;;;;;;;0.30;0.30;;;;;;;7.06;100.00;98505.41;6550377;21;20272;-87
2024/04/16 08:52:01;;;;;;;0.70;0.40;;;;;;;7.04;100.00;98467.53;6509465;21;20317;-84
2024/04/16 08:54:33;;;;;;;1.60;0.60;;;;;;;6.97;100.00;98472.94;6594877;21;20227;-84
2024/04/16 08:57:05;;;;;;;1.00;0.50;;;;;;;7.00;100.00;98500.94;6596746;21;20216;-86
2024/04/16 08:59:33;;;;;;;0.43;0.40;;;;;;;7.25;100.00;98506.19;6509762;21;20273;-85
2024/04/16 09:02:01;;;;;;;1.47;0.50;;;;;;;7.29;100.00;98504.69;6508344;21;20228;-85
2024/04/16 09:04:36;;;;;;;1.60;0.60;;;;;;;7.29;100.00;98507.34;6597958;21;20254;-87
2024/04/16 09:07:07;;;;;;;1.33;0.50;;;;;;;7.35;100.00;98504.59;6554923;21;20225;-87
2024/04/16 09:09:35;;;;;;;1.83;0.70;;;;;;;7.14;100.00;98494.41;6596420;21;20228;-84
2024/04/16 09:12:03;;;;;;;0.93;0.43;;;;;;;7.39;100.00;98496.97;6509628;21;20224;-85
2024/04/16 09:14:31;;;;;;;0.77;0.43;;;;;;;7.20;100.00;98512.19;6553972;21;20233;-86
2024/04/16 09:17:01;;;;;;;1.80;0.40;;;;;;;7.16;100.00;98520.84;6595458;21;20819;-83
2024/04/16 09:19:31;;;;;;;1.40;0.40;;;;;;;7.07;100.00;98512.34;6552670;21;20276;-86
2024/04/16 09:22:00;;;;;;;1.63;0.60;;;;;;;7.01;100.00;98514.06;6552146;21;20254;-86
2024/04/16 09:24:29;;;;;;;0.70;0.50;;;;;;;7.27;100.00;98509.44;6511526;21;20672;-86
2024/04/16 09:27:00;;;;;;;1.27;0.90;;;;;;;7.34;100.00;98500.31;6552845;21;21099;-85
2024/04/16 09:29:31;;;;;;;0.83;0.60;;;;;;;7.48;100.00;98504.41;6511752;21;20239;-85
2024/04/16 09:32:03;;;;;;;0.70;0.40;;;;;;;7.59;100.00;98518.84;6552735;21;20244;-86
2024/04/16 09:34:31;;;;;;;0.70;0.43;;;;;;;7.74;100.00;98513.91;6509604;21;20303;-84
2024/04/16 09:37:00;;;;;;;0.90;0.50;;;;;;;7.79;100.00;98513.22;6596365;21;20269;-85
2024/04/16 09:39:29;;;;;;;1.53;0.60;;;;;;;7.59;100.00;98510.84;6551079;21;20232;-87
2024/04/16 09:41:58;;;;;;;0.83;0.50;;;;;;;7.81;100.00;98511.09;6553792;21;20251;-88
2024/04/16 09:44:31;;;;;;;0.93;0.50;;;;;;;7.90;100.00;98483.06;6513269;21;20279;-87
2024/04/16 09:47:02;;;;;;;1.47;0.60;;;;;;;8.05;100.00;98496.78;6552553;21;20236;-85
2024/04/16 09:49:30;;;;;;;0.90;0.50;;;;;;;7.92;100.00;98521.81;6597762;21;20267;-87
2024/04/16 09:52:14;;;;;;;1.17;0.40;;;;;;;7.81;100.00;98521.78;6562412;21;20261;-86
2024/04/16 09:54:43;;;;;;;0.70;0.50;;;;;;;7.87;100.00;98518.22;6508074;21;20228;-84
2024/04/16 09:57:14;;;;;;;1.80;0.50;;;;;;;7.88;100.00;98534.00;6596617;21;21087;-86
2024/04/16 09:59:47;;;;;;;0.67;0.50;;;;;;;7.79;100.00;98519.31;6554201;21;20223;-85
2024/04/16 10:02:17;;;;;;;1.47;0.50;;;;;;;7.78;100.00;98515.06;6552820;21;20255;-86
2024/04/16 10:04:46;;;;;;;2.57;0.50;;;;;;;7.62;100.00;98522.88;6552807;21;20224;-86
2024/04/16 10:07:16;;;;;;;1.07;0.60;;;;;;;7.73;100.00;98535.44;6553900;21;20220;-85
2024/04/16 10:09:45;;;;;;;2.40;0.60;;;;;;;7.84;100.00;98534.63;6551887;21;20287;-87
2024/04/16 10:12:13;;;;;;;1.50;0.50;;;;;;;7.87;100.00;98521.69;6551553;21;20220;-86
2024/04/16 10:14:43;;;;;;;1.73;0.50;;;;;;;7.98;100.00;98499.53;6508395;21;20243;-85
2024/04/16 10:17:14;;;;;;;1.87;0.67;;;;;;;8.14;100.00;98495.38;6553074;21;20267;-87
2024/04/16 10:19:42;;;;;;;1.23;0.60;;;;;;;8.01;100.00;98481.47;6551927;21;20270;-86
2024/04/16 10:22:13;;;;;;;1.70;0.80;;;;;;;8.12;100.00;98475.34;6552618;21;20220;-84
2024/04/16 10:24:56;;;;;;;1.07;0.50;;;;;;;7.94;100.00;98482.38;6510516;21;20360;-85
2024/04/16 10:27:27;;;;;;;1.10;0.53;;;;;;;8.11;100.00;98485.19;6508983;21;20226;-85
2024/04/16 10:30:11;;;;;;;0.90;0.60;;;;;;;8.11;100.00;98492.38;6593237;21;20247;-88
2024/04/16 10:32:47;;;;;;;0.90;0.50;;;;;;;7.92;100.00;98484.47;6448873;22;20293;-83
2024/04/16 10:35:19;;;;;;;1.53;0.70;;;;;;;8.01;100.00;98479.63;6489129;22;20248;-86
2024/04/16 10:37:47;;;;;;;1.90;0.53;;;;;;;7.90;100.00;98467.88;6405891;22;21092;-84
2024/04/16 10:40:28;;;;;;;1.03;0.50;;;;;;;8.02;100.00;98467.91;6488758;22;20269;-86
2024/04/16 10:43:01;;;;;;;0.63;0.50;;;;;;;8.27;100.00;98459.66;6447638;22;20234;-85
2024/04/16 10:45:30;;;;;;;2.40;0.67;;;;;;;8.34;100.00;98439.84;6450172;22;20305;-86
2024/04/16 10:48:00;;;;;;;0.87;0.70;;;;;;;8.55;100.00;98459.78;6406368;22;20289;-86
2024/04/16 10:50:31;;;;;;;1.27;0.63;;;;;;;8.61;100.00;98466.84;6405358;22;20702;-85
2024/04/16 10:53:18;;;;;;;1.03;0.60;;;;;;;8.61;100.00;98464.19;6406627;22;20334;-85
2024/04/16 10:55:46;;;;;;;0.90;0.70;;;;;;;8.52;100.00;98462.91;6448757;22;20273;-86
2024/04/16 10:58:18;;;;;;;1.23;0.50;;;;;;;8.57;100.00;98475.56;6446611;22;20276;-84
2024/04/16 11:00:52;;;;;;;1.60;0.70;;;;;;;8.64;100.00;98474.38;6404421;22;20222;-85
2024/04/16 11:03:22;;;;;;;1.30;0.70;;;;;;;8.57;100.00;98467.56;6446734;22;20352;-86
2024/04/16 11:05:51;;;;;;;1.13;0.70;;;;;;;8.43;100.00;98474.19;6487764;22;20230;-82
2024/04/16 11:08:20;;;;;;;2.70;0.73;;;;;;;8.55;100.00;98482.97;6489295;22;20230;-83
2024/04/16 11:10:51;;;;;;;1.40;0.60;;;;;;;8.56;100.00;98480.09;6446144;22;20265;-84
2024/04/16 11:13:20;;;;;;;1.63;0.70;;;;;;;8.76;100.00;98471.72;6447764;22;20222;-84
2024/04/16 11:15:48;;;;;;;1.10;0.60;;;;;;;8.91;100.00;98465.88;6446801;22;20584;-85
2024/04/16 11:18:16;;;;;;;1.43;0.63;;;;;;;9.06;100.00;98455.44;6445215;22;21113;-84
2024/04/16 11:20:44;;;;;;;2.40;0.80;;;;;;;9.06;100.00;98456.28;6486997;22;20222;-84
2024/04/16 11:23:12;;;;;;;1.03;0.63;;;;;;;9.16;100.00;98452.97;6445451;22;20226;-83
2024/04/16 11:25:44;;;;;;;1.20;0.70;;;;;;;9.33;100.00;98453.03;6445898;22;20357;-82
2024/04/16 11:28:15;;;;;;;1.27;0.80;;;;;;;9.26;100.00;98451.31;6446971;22;20265;-82
2024/04/16 11:30:56;;;;;;;1.27;0.70;;;;;;;9.31;100.00;98453.28;6515020;21;20315;-83
2024/04/16 11:33:25;;;;;;;0.77;0.63;;;;;;;9.14;100.00;98461.25;6549228;21;20246;-85
2024/04/16 11:36:03;;;;;;;3.20;0.67;;;;;;;9.22;100.00;98455.53;6593050;21;20227;-82
2024/04/16 11:38:37;;;;;;;1.50;0.80;;;;;;;9.16;100.00;98444.97;6591814;21;20216;-84
2024/04/16 11:41:07;;;;;;;2.17;0.90;;;;;;;9.07;100.00;98433.03;6592577;21;20241;-84
2024/04/16 11:43:42;;;;;;;1.63;0.70;;;;;;;9.12;100.00;98439.28;6551022;21;21132;-84
2024/04/16 11:46:16;;;;;;;1.77;0.73;;;;;;;9.17;100.00;98433.22;6549509;21;20216;-81
2024/04/16 11:48:48;;;;;;;1.33;0.70;;;;;;;9.35;100.00;98440.22;6508572;21;21278;-83
2024/04/16 11:51:21;;;;;;;2.90;1.00;;;;;;;9.40;100.00;98432.31;6507762;21;20220;-83
2024/04/16 11:53:49;;;;;;;2.43;0.73;;;;;;;9.41;100.00;98412.53;6506661;21;20224;-83
2024/04/16 11:56:17;;;;;;;2.33;0.73;;;;;;;9.50;100.00;98411.09;6592889;21;20347;-84
2024/04/16 11:58:49;;;;;;;1.27;0.70;;;;;;;9.50;100.00;98425.28;6592287;21;20232;-84
2024/04/16 12:01:18;;;;;;;1.10;0.70;;;;;;;9.48;100.00;98429.22;6550899;21;20215;-83
2024/04/16 12:03:49;;;;;;;2.23;0.80;;;;;;;9.40;100.00;98430.44;6507877;21;20275;-82
2024/04/16 12:06:17;;;;;;;1.43;0.77;;;;;;;9.37;100.00;98449.66;6591677;21;20216;-83
2024/04/16 12:08:45;;;;;;;1.60;0.80;;;;;;;9.31;100.00;98449.78;6505923;21;20228;-85
2024/04/16 12:11:16;;;;;;;1.80;1.00;;;;;;;9.47;100.00;98455.16;6592655;21;20263;-86
2024/04/16 12:13:44;;;;;;;1.63;0.60;;;;;;;9.40;100.00;98454.50;6549233;21;20243;-84
2024/04/16 12:16:13;;;;;;;1.80;0.70;;;;;;;9.52;100.00;98441.88;6549011;21;20279;-83
2024/04/16 12:18:42;;;;;;;1.83;0.73;;;;;;;9.60;100.00;98417.44;6591398;21;20232;-84
2024/04/16 12:21:11;;;;;;;1.70;0.80;;;;;;;9.79;100.00;98409.16;6548489;21;20258;-83
2024/04/16 12:23:45;;;;;;;3.07;1.00;;;;;;;9.69;100.00;98404.47;6508406;21;20275;-81
2024/04/16 12:26:13;;;;;;;2.03;0.93;;;;;;;9.86;100.00;98404.44;6591923;21;20251;-84
2024/04/16 12:28:47;;;;;;;3.47;0.93;;;;;;;10.02;100.00;98409.78;6506734;21;20270;-83
2024/04/16 12:31:16;;;;;;;3.43;1.00;;;;;;;10.15;100.00;98401.44;6549339;21;20247;-83
2024/04/16 12:33:46;;;;;;;1.37;0.70;;;;;;;10.00;100.00;98406.53;6550607;21;20330;-84
2024/04/16 12:36:14;;;;;;;1.60;0.80;;;;;;;10.09;100.00;98399.72;6551599;21;20212;-81
2024/04/16 12:38:44;;;;;;;1.50;0.97;;;;;;;10.12;100.00;98417.16;6507538;21;20227;-82
2024/04/16 12:41:12;;;;;;;1.43;0.80;;;;;;;10.36;100.00;98413.22;6551102;21;20228;-82
2024/04/16 12:43:40;;;;;;;1.70;0.90;;;;;;;10.49;100.00;98409.41;6550168;21;20259;-82
2024/04/16 12:46:12;;;;;;;1.13;0.80;;;;;;;10.50;100.00;98408.31;6550210;21;20224;-83
2024/04/16 12:48:42;;;;;;;1.83;0.70;;;;;;;10.58;100.00;98408.72;6549555;21;20220;-85
2024/04/16 12:51:11;;;;;;;1.53;0.87;;;;;;;10.55;100.00;98409.19;6509897;21;20803;-85
2024/04/16 12:53:39;;;;;;;1.43;0.97;;;;;;;10.47;100.00;98416.84;6594646;21;20220;-84
2024/04/16 12:56:11;;;;;;;1.27;0.90;;;;;;;10.50;100.00;98409.13;6507499;21;20692;-86
2024/04/16 12:58:42;;;;;;;2.07;0.80;;;;;;;10.40;100.00;98414.38;6550549;21;20236;-85
2024/04/16 13:01:12;;;;;;;2.53;0.80;;;;;;;10.69;100.00;98427.56;6550426;21;20216;-85
2024/04/16 13:03:49;;;;;;;2.10;0.70;;;;;;;10.69;100.00;98415.00;6548628;21;20325;-85
2024/04/16 13:06:18;;;;;;;1.03;0.70;;;;;;;10.91;100.00;98417.69;6593606;21;20287;-84
2024/04/16 13:08:48;;;;;;;3.40;0.97;;;;;;;11.00;100.00;98408.94;6548321;21;21217;-84
2024/04/16 13:11:17;;;;;;;0.80;0.70;;;;;;;11.15;100.00;98416.31;6548723;21;20333;-81
2024/04/16 13:13:49;;;;;;;1.87;0.77;;;;;;;11.24;100.00;98422.06;6593101;21;20220;-84
2024/04/16 13:16:21;;;;;;;1.03;0.70;;;;;;;11.22;100.00;98411.56;6549604;21;20317;-83
2024/04/16 13:18:52;;;;;;;3.20;0.90;;;;;;;11.14;100.00;98401.31;6591686;21;20880;-82
2024/04/16 13:21:20;;;;;;;1.60;0.70;;;;;;;11.15;100.00;98397.53;6549081;21;20224;-83
2024/04/16 13:23:47;;;;;;;3.03;1.03;;;;;;;10.96;100.00;98398.97;6592768;21;20355;-82
2024/04/16 13:26:15;;;;;;;1.63;0.83;;;;;;;11.01;100.00;98396.34;6547997;21;20224;-81
2024/04/16 13:28:44;;;;;;;2.37;0.90;;;;;;;10.95;100.00;98384.78;6548546;21;20232;-81
2024/04/16 13:31:12;;;;;;;3.00;0.93;;;;;;;10.93;100.00;98376.16;6548703;21;20338;-82
2024/04/16 13:33:41;;;;;;;0.90;0.80;;;;;;;10.88;100.00;98380.66;6591183;21;20252;-85
2024/04/16 13:36:10;;;;;;;3.40;0.97;;;;;;;10.83;100.00;98376.03;6593150;21;20234;-82
2024/04/16 13:38:37;;;;;;;1.63;0.93;;;;;;;11.02;100.00;98384.56;6548186;21;20263;-81
2024/04/16 13:41:08;;;;;;;1.27;0.90;;;;;;;11.01;100.00;98381.06;6548751;21;20287;-83
2024/04/16 13:43:37;;;;;;;1.43;0.80;;;;;;;11.09;100.00;98374.44;6592132;21;20228;-85
2024/04/16 13:46:04;;;;;;;3.67;1.00;;;;;;;11.23;100.00;98378.34;6592897;21;20226;-82
2024/04/16 13:48:32;;;;;;;2.20;0.70;;;;;;;11.27;100.00;98368.72;6547174;21;20235;-84
2024/04/16 13:51:02;;;;;;;1.70;0.83;;;;;;;11.31;100.00;98372.50;6590699;21;20291;-82
2024/04/16 13:53:30;;;;;;;1.00;0.60;;;;;;;11.30;100.00;98373.56;6591717;21;20322;-82
2024/04/16 13:56:00;;;;;;;1.73;0.87;;;;;;;11.39;100.00;98364.00;6507077;21;20329;-84
2024/04/16 13:58:28;;;;;;;1.57;0.80;;;;;;;11.35;100.00;98362.91;6590933;21;20244;-80
2024/04/16 14:00:58;;;;;;;1.83;0.93;;;;;;;11.26;100.00;98369.78;6590925;21;20259;-81
2024/04/16 14:03:28;;;;;;;2.80;1.17;;;;;;;11.27;100.00;98367.91;6548016;21;20275;-83
2024/04/16 14:06:03;;;;;;;1.83;1.00;;;;;;;11.21;100.00;98364.38;6590752;21;20220;-82
2024/04/16 14:08:31;;;;;;;1.13;0.80;;;;;;;11.10;100.00;98369.91;6548057;21;20263;-83
2024/04/16 14:11:11;;;;;;;1.70;0.80;;;;;;;11.06;100.00;98372.25;6549035;21;20298;-83
2024/04/16 14:13:40;;;;;;;2.60;1.00;;;;;;;11.09;100.00;98366.41;6589006;21;20230;-84
2024/04/16 14:16:08;;;;;;;2.77;0.80;;;;;;;11.08;100.00;98364.78;6546505;21;20228;-82
2024/04/16 14:18:36;;;;;;;2.10;1.30;;;;;;;10.96;100.00;98362.25;6589977;21;20236;-82
2024/04/16 14:21:06;;;;;;;1.73;0.83;;;;;;;10.93;100.00;98360.06;6547611;21;20270;-84
2024/04/16 14:23:35;;;;;;;2.27;1.00;;;;;;;10.87;100.00;98350.38;6546906;21;20298;-83
2024/04/16 14:26:04;;;;;;;1.93;0.90;;;;;;;10.90;100.00;98341.03;6590964;21;20212;-84
2024/04/16 14:28:32;;;;;;;1.70;0.90;;;;;;;10.86;100.00;98345.28;6546219;21;20223;-82
2024/04/16 14:31:00;;;;;;;1.67;0.93;;;;;;;10.83;100.00;98343.06;6547740;21;20229;-81
2024/04/16 14:33:27;;;;;;;2.30;0.80;;;;;;;10.90;100.00;98338.34;6591063;21;20318;-83
2024/04/16 14:35:59;;;;;;;2.03;1.10;;;;;;;10.89;100.00;98334.03;6503390;21;20219;-80
2024/04/16 14:38:30;;;;;;;2.10;1.27;;;;;;;10.87;100.00;98328.16;6591142;21;20294;-82
2024/04/16 14:41:01;;;;;;;2.50;0.90;;;;;;;10.87;100.00;98336.19;6588715;21;20270;-84
2024/04/16 14:43:30;;;;;;;1.77;1.00;;;;;;;10.85;100.00;98331.06;6589121;21;20384;-83
2024/04/16 14:45:57;;;;;;;3.90;1.00;;;;;;;10.80;100.00;98311.44;6546336;21;20279;-83
2024/04/16 14:48:25;;;;;;;2.47;1.20;;;;;;;10.76;100.00;98310.34;6590879;21;20274;-84
2024/04/16 14:50:53;;;;;;;1.53;0.90;;;;;;;10.74;100.00;98326.66;6545863;21;20236;-84
2024/04/16 14:53:27;;;;;;;2.63;1.10;;;;;;;10.72;100.00;98315.41;6588878;21;20227;-83
2024/04/16 14:56:01;;;;;;;2.67;1.17;;;;;;;10.71;100.00;98305.72;6547495;21;20229;-84
2024/04/16 14:58:29;;;;;;;2.27;1.23;;;;;;;10.60;100.00;98298.63;6589200;21;20235;-84
2024/04/16 15:00:57;;;;;;;1.53;1.00;;;;;;;10.53;100.00;98306.88;6503854;21;21116;-85
2024/04/16 15:03:24;;;;;;;1.53;0.90;;;;;;;10.47;100.00;98309.75;6589315;21;20904;-83
2024/04/16 15:05:52;;;;;;;1.80;0.90;;;;;;;10.34;100.00;98302.09;6590002;21;20266;-83
2024/04/16 15:08:20;;;;;;;2.30;1.07;;;;;;;10.25;100.00;98304.41;6591456;21;20235;-85
2024/04/16 15:10:50;;;;;;;1.70;1.07;;;;;;;10.13;100.00;98295.66;6588760;21;20236;-77
2024/04/16 15:13:18;;;;;;;2.67;1.13;;;;;;;10.03;100.00;98279.50;6587368;21;20832;-75
2024/04/16 15:15:57;;;;;;;2.03;0.90;;;;;;;10.06;100.00;98287.00;6587578;21;21156;-74
2024/04/16 15:18:26;;;;;;;3.27;1.10;;;;;;;10.03;100.00;98287.53;6587132;21;20254;-75
2024/04/16 15:20:55;;;;;;;1.67;0.80;;;;;;;10.13;100.00;98285.75;6586757;21;20262;-75
2024/04/16 15:23:22;;;;;;;1.33;0.93;;;;;;;10.19;100.00;98285.84;6585057;21;20216;-74